createdAt,value
2019-02-23T00:01:18.691Z,71.07
2019-02-23T00:03:46.863Z,73.55
2019-02-23T00:06:14.759Z,68.55
2019-02-23T00:08:43.134Z,70.05
2019-02-23T00:11:11.221Z,72.40
2019-02-23T00:13:39.779Z,64.28
2019-02-23T00:16:08.207Z,65.57
2019-02-23T00:18:36.059Z,66.12
2019-02-23T00:21:04.131Z,76.70
2019-02-23T00:23:32.211Z,66.82
2019-02-23T00:25:59.739Z,62.15
2019-02-23T00:28:27.797Z,66.45
2019-02-23T00:30:56.454Z,77.07
2019-02-23T00:33:24.564Z,68.32
2019-02-23T00:35:52.757Z,87.88
2019-02-23T00:38:21.118Z,64.57
2019-02-23T00:40:48.881Z,73.10
2019-02-23T00:43:16.782Z,75.05
2019-02-23T00:45:44.854Z,75.28
2019-02-23T00:48:12.971Z,67.43
2019-02-23T00:50:41.181Z,70.95
2019-02-23T00:53:09.631Z,75.68
2019-02-23T00:55:37.752Z,77.78
2019-02-23T00:58:06.427Z,70.85
2019-02-23T01:00:34.505Z,71.37
2019-02-23T01:03:02.455Z,61.60
2019-02-23T01:05:30.509Z,69.53
2019-02-23T01:07:58.952Z,57.33
2019-02-23T01:10:27.080Z,54.00
2019-02-23T01:12:55.158Z,64.18
2019-02-23T01:15:23.738Z,65.45
2019-02-23T01:17:52.288Z,63.87
2019-02-23T01:20:20.488Z,60.30
2019-02-23T01:22:49.378Z,66.35
2019-02-23T01:25:18.121Z,62.62
2019-02-23T01:27:46.040Z,66.15
2019-02-23T01:30:14.104Z,62.72
2019-02-23T01:32:42.198Z,56.60
2019-02-23T01:35:10.373Z,55.30
2019-02-23T01:37:38.911Z,62.92
2019-02-23T01:40:07.807Z,54.42
2019-02-23T01:42:35.997Z,61.15
2019-02-23T01:45:04.460Z,60.75
2019-02-23T01:47:31.912Z,60.85
2019-02-23T01:50:00.034Z,46.92
2019-02-23T01:52:27.815Z,53.92
2019-02-23T01:54:56.032Z,47.17
2019-02-23T01:57:23.809Z,56.72
2019-02-23T01:59:51.920Z,48.05
2019-02-23T02:02:19.842Z,42.92
2019-02-23T02:04:48.005Z,51.53
2019-02-23T02:07:16.213Z,45.17
2019-02-23T02:09:44.385Z,46.75
2019-02-23T02:12:14.471Z,45.95
2019-02-23T02:14:43.346Z,45.12
2019-02-23T02:17:13.200Z,45.67
2019-02-23T02:19:42.564Z,43.13
2019-02-23T02:22:15.144Z,43.08
2019-02-23T02:24:43.271Z,47.90
2019-02-23T02:27:13.086Z,44.60
2019-02-23T02:29:41.317Z,46.97
2019-02-23T02:32:10.072Z,46.08
2019-02-23T02:34:38.298Z,53.83
2019-02-23T02:37:06.141Z,43.63
2019-02-23T02:39:34.220Z,46.30
2019-02-23T02:42:02.358Z,45.95
2019-02-23T02:44:30.472Z,45.17
2019-02-23T02:46:58.644Z,43.28
2019-02-23T02:49:26.215Z,43.05
2019-02-23T02:51:54.384Z,40.38
2019-02-23T02:54:22.454Z,39.33
2019-02-23T02:56:50.544Z,43.55
2019-02-23T02:59:19.108Z,42.47
2019-02-23T03:01:47.283Z,41.75
2019-02-23T03:04:15.411Z,44.40
2019-02-23T03:06:44.719Z,40.63
2019-02-23T03:09:12.678Z,40.80
2019-02-23T03:11:40.877Z,41.30
2019-02-23T03:14:09.728Z,41.75
2019-02-23T03:16:37.827Z,40.22
2019-02-23T03:19:06.042Z,46.45
2019-02-23T03:21:34.278Z,41.88
2019-02-23T03:24:02.456Z,46.33
2019-02-23T03:26:30.571Z,42.75
2019-02-23T03:28:58.725Z,45.08
2019-02-23T03:31:26.153Z,68.45
2019-02-23T03:33:54.056Z,49.90
2019-02-23T03:36:22.398Z,44.42
2019-02-23T03:38:50.694Z,47.08
2019-02-23T03:41:18.770Z,43.00
2019-02-23T03:43:46.596Z,42.80
2019-02-23T03:46:14.717Z,47.92
2019-02-23T03:48:42.864Z,53.97
2019-02-23T03:51:11.236Z,47.00
2019-02-23T03:53:40.024Z,38.83
2019-02-23T03:56:07.905Z,51.17
2019-02-23T03:58:36.283Z,45.03
2019-02-23T04:01:04.338Z,42.30
2019-02-23T04:03:32.392Z,46.28
2019-02-23T04:06:00.308Z,51.72
2019-02-23T04:08:28.181Z,42.92
2019-02-23T04:10:56.329Z,49.58
2019-02-23T04:13:25.724Z,50.00
2019-02-23T04:15:54.287Z,41.25
2019-02-23T04:18:22.392Z,38.45
2019-02-23T04:21:01.289Z,41.97
2019-02-23T04:23:19.264Z,42.55
2019-02-23T04:25:47.615Z,48.10
2019-02-23T04:28:15.504Z,42.85
2019-02-23T04:30:43.641Z,41.00
2019-02-23T04:33:12.242Z,43.13
2019-02-23T04:35:40.588Z,43.10
2019-02-23T04:38:08.788Z,43.80
2019-02-23T04:40:36.833Z,39.30
2019-02-23T04:43:05.029Z,48.75
2019-02-23T04:45:33.557Z,45.45
2019-02-23T04:48:01.809Z,43.33
2019-02-23T04:50:29.894Z,46.25
2019-02-23T04:52:57.817Z,51.75
2019-02-23T04:55:25.910Z,43.60
2019-02-23T04:57:54.082Z,49.85
2019-02-23T05:00:22.176Z,47.08
2019-02-23T05:02:52.876Z,48.50
2019-02-23T05:05:20.738Z,39.75
2019-02-23T05:07:49.003Z,39.50
2019-02-23T05:10:16.838Z,44.58
2019-02-23T05:12:45.073Z,49.50
2019-02-23T05:15:13.116Z,46.05
2019-02-23T05:17:40.910Z,49.13
2019-02-23T05:20:09.592Z,50.28
2019-02-23T05:22:37.752Z,47.72
2019-02-23T05:25:05.547Z,53.38
2019-02-23T05:27:33.811Z,50.35
2019-02-23T05:30:01.970Z,54.05
2019-02-23T05:32:29.730Z,50.10
2019-02-23T05:34:58.338Z,47.65
2019-02-23T05:37:26.475Z,55.78
2019-02-23T05:39:54.309Z,55.60
2019-02-23T05:42:22.540Z,49.67
2019-02-23T05:44:50.381Z,49.40
2019-02-23T05:47:18.490Z,46.75
2019-02-23T05:49:46.658Z,40.60
2019-02-23T05:52:14.905Z,43.80
2019-02-23T05:54:42.672Z,50.88
2019-02-23T05:57:11.074Z,45.90
2019-02-23T05:59:38.604Z,42.53
2019-02-23T06:02:06.677Z,46.30
2019-02-23T06:04:34.196Z,45.00
2019-02-23T06:07:02.403Z,50.12
2019-02-23T06:09:30.485Z,47.92
2019-02-23T06:11:58.700Z,42.85
2019-02-23T06:14:26.815Z,45.55
2019-02-23T06:16:54.896Z,43.40
2019-02-23T06:19:23.294Z,50.50
2019-02-23T06:21:53.978Z,49.10
2019-02-23T06:24:19.973Z,50.47
2019-02-23T06:26:48.125Z,46.83
2019-02-23T06:29:15.989Z,55.67
2019-02-23T06:31:44.064Z,45.53
2019-02-23T06:34:15.966Z,51.92
2019-02-23T06:36:40.396Z,50.53
2019-02-23T06:39:08.153Z,46.63
2019-02-23T06:41:36.845Z,48.35
2019-02-23T06:44:04.623Z,39.40
2019-02-23T06:46:32.671Z,43.45
2019-02-23T06:49:00.739Z,41.10
2019-02-23T06:51:28.836Z,44.97
2019-02-23T06:53:56.906Z,46.08
2019-02-23T06:56:25.715Z,44.53
2019-02-23T06:58:53.732Z,43.50
2019-02-23T07:01:21.812Z,37.50
2019-02-23T07:03:50.728Z,38.72
2019-02-23T07:06:18.795Z,42.75
2019-02-23T07:08:46.308Z,40.22
2019-02-23T07:11:14.435Z,40.28
2019-02-23T07:13:42.184Z,35.25
2019-02-23T07:16:10.245Z,44.30
2019-02-23T07:18:38.110Z,31.77
2019-02-23T07:21:06.199Z,35.00
2019-02-23T07:23:33.665Z,33.95
2019-02-23T07:26:02.340Z,32.50
2019-02-23T07:28:30.183Z,30.00
2019-02-23T07:30:58.263Z,34.70
2019-02-23T07:33:32.879Z,28.67
2019-02-23T07:35:54.098Z,26.02
2019-02-23T07:38:22.371Z,24.10
2019-02-23T07:40:50.719Z,25.85
2019-02-23T07:43:18.822Z,23.67
2019-02-23T07:45:46.892Z,22.95
2019-02-23T07:48:15.534Z,22.48
2019-02-23T07:50:43.752Z,24.05
2019-02-23T07:53:11.850Z,20.98
2019-02-23T07:55:40.169Z,22.95
2019-02-23T07:58:08.767Z,20.90
2019-02-23T08:00:36.877Z,21.85
2019-02-23T08:03:05.632Z,22.87
2019-02-23T08:05:33.407Z,22.45
2019-02-23T08:08:01.581Z,20.23
2019-02-23T08:10:29.370Z,20.33
2019-02-23T08:12:57.430Z,19.42
2019-02-23T08:15:25.469Z,19.00
2019-02-23T08:17:53.273Z,21.98
2019-02-23T08:20:21.003Z,20.52
2019-02-23T08:22:49.079Z,21.10
2019-02-23T08:25:17.249Z,20.77
2019-02-23T08:27:45.430Z,18.45
2019-02-23T08:30:13.224Z,18.08
2019-02-23T08:32:40.417Z,16.80
2019-02-23T08:35:08.259Z,17.65
2019-02-23T08:37:35.976Z,16.65
2019-02-23T08:40:04.151Z,19.48
2019-02-23T08:42:32.209Z,16.65
2019-02-23T08:45:00.038Z,18.80
2019-02-23T08:47:28.448Z,18.77
2019-02-23T08:49:56.510Z,18.05
2019-02-23T08:52:24.721Z,19.23
2019-02-23T08:54:52.770Z,19.20
2019-02-23T08:57:20.662Z,17.33
2019-02-23T08:59:49.170Z,17.00
2019-02-23T09:02:17.523Z,16.42
2019-02-23T09:04:45.692Z,17.30
2019-02-23T09:07:13.762Z,18.35
2019-02-23T09:09:42.107Z,21.05
2019-02-23T09:12:10.218Z,15.13
2019-02-23T09:14:37.982Z,16.33
2019-02-23T09:17:06.932Z,18.45
2019-02-23T09:19:34.710Z,20.42
2019-02-23T09:22:02.476Z,18.37
2019-02-23T09:24:29.981Z,18.48
2019-02-23T09:26:58.213Z,13.40
2019-02-23T09:29:27.121Z,13.55
2019-02-23T09:31:55.452Z,13.65
2019-02-23T09:34:23.667Z,13.55
2019-02-23T09:36:51.716Z,15.40
2019-02-23T09:39:19.587Z,16.67
2019-02-23T09:41:47.384Z,20.25
2019-02-23T09:44:15.478Z,17.42
2019-02-23T09:46:43.624Z,18.70
2019-02-23T09:49:11.691Z,17.17
2019-02-23T09:51:39.736Z,17.87
2019-02-23T09:54:07.843Z,18.40
2019-02-23T09:56:35.999Z,15.52
2019-02-23T09:59:03.783Z,16.30
2019-02-23T10:01:31.845Z,20.45
2019-02-23T10:03:59.909Z,18.37
2019-02-23T10:06:28.071Z,22.10
2019-02-23T10:08:55.953Z,15.02
2019-02-23T10:11:23.696Z,19.05
2019-02-23T10:13:51.891Z,19.25
2019-02-23T10:16:20.228Z,16.08
2019-02-23T10:18:48.323Z,20.65
2019-02-23T10:21:16.408Z,16.60
2019-02-23T10:23:44.525Z,17.90
2019-02-23T10:26:13.116Z,15.48
2019-02-23T10:28:40.926Z,18.23
2019-02-23T10:31:10.419Z,19.20
2019-02-23T10:33:47.417Z,19.37
2019-02-23T10:36:06.645Z,19.90
2019-02-23T10:38:34.744Z,14.87
2019-02-23T10:41:02.190Z,19.48
2019-02-23T10:43:30.243Z,17.67
2019-02-23T10:45:58.339Z,21.02
2019-02-23T10:48:26.414Z,17.70
2019-02-23T10:50:55.058Z,17.80
2019-02-23T10:53:32.587Z,20.37
2019-02-23T10:55:52.118Z,18.08
2019-02-23T10:58:20.199Z,19.95
2019-02-23T11:00:48.417Z,19.48
2019-02-23T11:03:16.154Z,20.92
2019-02-23T11:05:44.249Z,18.12
2019-02-23T11:08:12.038Z,18.25
2019-02-23T11:10:40.208Z,20.15
2019-02-23T11:13:08.356Z,22.85
2019-02-23T11:15:36.721Z,22.85
2019-02-23T11:18:04.796Z,20.10
2019-02-23T11:20:32.896Z,20.62
2019-02-23T11:23:01.159Z,20.05
2019-02-23T11:25:29.311Z,24.70
2019-02-23T11:27:57.068Z,21.02
2019-02-23T11:30:25.427Z,24.85
2019-02-23T11:32:53.643Z,21.40
2019-02-23T11:35:23.032Z,24.10
2019-02-23T11:37:51.015Z,20.80
2019-02-23T11:40:18.994Z,20.00
2019-02-23T11:42:47.046Z,24.15
2019-02-23T11:45:15.075Z,21.98
2019-02-23T11:47:43.117Z,22.70
2019-02-23T11:50:11.630Z,21.58
2019-02-23T11:52:40.054Z,21.50
2019-02-23T11:55:08.028Z,23.60
2019-02-23T11:57:35.999Z,25.23
2019-02-23T12:00:03.991Z,25.17
2019-02-23T12:02:32.000Z,25.15
2019-02-23T12:04:59.967Z,21.00
2019-02-23T12:07:27.928Z,24.33
2019-02-23T12:09:55.906Z,25.15
2019-02-23T12:12:23.907Z,24.23
2019-02-23T12:14:53.033Z,24.05
2019-02-23T12:17:20.466Z,20.65
2019-02-23T12:19:48.396Z,25.60
2019-02-23T12:22:16.367Z,22.15
2019-02-23T12:24:44.357Z,21.35
2019-02-23T12:27:12.297Z,22.90
2019-02-23T12:29:39.999Z,19.77
2019-02-23T12:32:07.698Z,19.62
2019-02-23T12:34:36.031Z,20.10
2019-02-23T12:37:04.069Z,20.00
2019-02-23T12:39:32.001Z,20.62
2019-02-23T12:41:59.716Z,20.33
2019-02-23T12:44:27.981Z,18.42
2019-02-23T12:46:55.947Z,15.60
2019-02-23T12:49:24.418Z,17.70
2019-02-23T12:51:52.528Z,18.75
2019-02-23T12:54:20.525Z,16.08
2019-02-23T12:56:48.255Z,16.80
2019-02-23T12:59:16.263Z,18.58
2019-02-23T13:01:44.199Z,15.48
2019-02-23T13:04:12.743Z,14.05
2019-02-23T13:06:40.710Z,18.75
2019-02-23T13:09:33.641Z,14.45
2019-02-23T13:12:13.245Z,14.73
2019-02-23T13:14:44.071Z,14.48
2019-02-23T13:17:20.976Z,14.02
2019-02-23T13:19:54.164Z,16.12
2019-02-23T13:22:47.191Z,14.00
2019-02-23T13:25:22.028Z,13.25
2019-02-23T13:28:12.612Z,12.52
2019-02-23T13:31:18.108Z,17.23
2019-02-23T13:34:08.520Z,15.13
2019-02-23T13:37:01.750Z,11.00
2019-02-23T13:39:47.503Z,10.63
2019-02-23T13:42:22.016Z,13.93
2019-02-23T13:45:00.681Z,12.57
2019-02-23T13:47:48.358Z,15.13
2019-02-23T13:50:38.881Z,12.55
2019-02-23T13:53:10.739Z,12.70
2019-02-23T13:55:56.517Z,10.43
2019-02-23T13:58:47.791Z,10.13
2019-02-23T14:01:28.632Z,15.18
2019-02-23T14:03:59.857Z,15.43
2019-02-23T14:06:59.108Z,12.93
2019-02-23T14:09:37.058Z,14.45
2019-02-23T14:12:24.798Z,15.43
2019-02-23T14:15:05.392Z,11.60
2019-02-23T14:17:47.261Z,15.98
2019-02-23T14:20:23.129Z,14.73
2019-02-23T14:23:13.542Z,11.30
2019-02-23T14:26:06.968Z,10.50
2019-02-23T14:28:38.168Z,16.17
2019-02-23T14:31:08.533Z,12.18
2019-02-23T14:33:47.334Z,13.05
2019-02-23T14:36:31.299Z,13.27
2019-02-23T14:39:17.709Z,16.52
2019-02-23T14:41:54.771Z,13.50
2019-02-23T14:44:38.581Z,16.15
2019-02-23T14:47:25.688Z,12.30
2019-02-23T14:50:19.532Z,16.02
2019-02-23T14:52:57.374Z,13.70
2019-02-23T14:55:44.513Z,13.32
2019-02-23T14:58:30.914Z,15.40
2019-02-23T15:01:24.320Z,15.65
2019-02-23T15:04:10.056Z,13.65
2019-02-23T15:06:46.298Z,14.70
2019-02-23T15:09:30.755Z,14.47
2019-02-23T15:12:02.681Z,13.88
2019-02-23T15:14:49.853Z,14.02
2019-02-23T15:17:24.885Z,12.63
2019-02-23T15:20:10.610Z,14.90
2019-02-23T15:23:01.099Z,13.45
2019-02-23T15:25:54.126Z,12.45
2019-02-23T15:28:37.453Z,13.57
2019-02-23T15:31:27.223Z,13.60
2019-02-23T15:34:17.477Z,14.80
2019-02-23T15:37:00.208Z,12.18
2019-02-23T15:39:36.475Z,15.32
2019-02-23T15:42:23.191Z,12.98
2019-02-23T15:45:22.878Z,13.65
2019-02-23T15:48:19.023Z,17.50
2019-02-23T15:50:47.022Z,11.25
2019-02-23T15:53:15.018Z,13.07
2019-02-23T15:55:42.926Z,13.90
2019-02-23T15:58:11.151Z,13.80
2019-02-23T16:00:39.130Z,14.82
2019-02-23T16:03:07.082Z,15.88
2019-02-23T16:05:34.773Z,13.38
2019-02-23T16:08:02.731Z,14.77
2019-02-23T16:10:31.393Z,12.60
2019-02-23T16:12:59.801Z,12.23
2019-02-23T16:15:27.730Z,10.00
2019-02-23T16:17:55.703Z,13.07
2019-02-23T16:20:24.025Z,13.90
2019-02-23T16:22:51.969Z,12.75
2019-02-23T16:25:20.250Z,13.32
2019-02-23T16:27:47.707Z,10.95
2019-02-23T16:30:15.393Z,14.70
2019-02-23T16:32:43.095Z,13.77
2019-02-23T16:35:11.121Z,11.38
2019-02-23T16:37:38.547Z,11.43
2019-02-23T16:40:06.498Z,8.27
2019-02-23T16:42:34.800Z,9.82
2019-02-23T16:45:03.141Z,12.87
2019-02-23T16:47:30.804Z,14.00
2019-02-23T16:49:59.106Z,13.00
2019-02-23T16:52:27.079Z,12.88
2019-02-23T16:54:55.049Z,14.52
2019-02-23T16:57:22.467Z,13.20
2019-02-23T16:59:50.389Z,11.88
2019-02-23T17:02:18.383Z,13.68
2019-02-23T17:04:53.643Z,12.27
2019-02-23T17:07:14.896Z,13.45
2019-02-23T17:09:42.666Z,12.05
2019-02-23T17:12:10.617Z,10.88
2019-02-23T17:14:38.628Z,13.38
2019-02-23T17:17:07.199Z,16.55
2019-02-23T17:19:35.175Z,14.23
2019-02-23T17:22:03.147Z,15.02
2019-02-23T17:24:31.179Z,11.82
2019-02-23T17:26:59.257Z,11.25
2019-02-23T17:29:27.538Z,11.90
2019-02-23T17:31:55.558Z,12.50
2019-02-23T17:34:24.165Z,11.05
2019-02-23T17:36:52.158Z,11.55
2019-02-23T17:39:20.189Z,11.95
2019-02-23T17:41:48.704Z,12.50
2019-02-23T17:44:16.551Z,12.50
2019-02-23T17:46:48.390Z,13.85
2019-02-23T17:49:13.156Z,11.35
2019-02-23T17:51:41.343Z,11.30
2019-02-23T17:54:09.865Z,12.32
2019-02-23T17:56:38.195Z,11.02
2019-02-23T17:59:05.895Z,9.35
2019-02-23T18:01:33.834Z,11.18
2019-02-23T18:04:02.080Z,11.60
2019-02-23T18:06:31.043Z,11.55
2019-02-23T18:08:58.221Z,11.95
2019-02-23T18:11:26.198Z,10.98
2019-02-23T18:13:54.201Z,10.23
2019-02-23T18:16:22.225Z,12.82
2019-02-23T18:18:49.902Z,13.38
2019-02-23T18:21:17.865Z,11.45
2019-02-23T18:23:45.867Z,11.77
2019-02-23T18:26:20.921Z,9.88
2019-02-23T18:28:42.255Z,10.77
2019-02-23T18:31:10.248Z,11.32
2019-02-23T18:33:38.218Z,10.10
2019-02-23T18:36:06.169Z,12.00
2019-02-23T18:38:34.140Z,11.25
2019-02-23T18:41:01.830Z,10.52
2019-02-23T18:43:29.800Z,11.40
2019-02-23T18:45:57.485Z,14.13
2019-02-23T18:48:26.186Z,10.30
2019-02-23T18:50:53.916Z,12.52
2019-02-23T18:53:21.624Z,11.98
2019-02-23T18:55:49.617Z,11.07
2019-02-23T18:58:17.312Z,11.45
2019-02-23T19:00:45.043Z,11.05
2019-02-23T19:03:12.994Z,14.00
2019-02-23T19:05:49.456Z,13.43
2019-02-23T19:08:08.745Z,13.07
2019-02-23T19:10:37.053Z,14.63
2019-02-23T19:13:05.117Z,13.47
2019-02-23T19:15:33.207Z,15.63
2019-02-23T19:18:01.374Z,15.57
2019-02-23T19:20:29.589Z,12.15
2019-02-23T19:22:57.305Z,14.02
2019-02-23T19:25:25.681Z,13.93
2019-02-23T19:27:53.771Z,13.30
2019-02-23T19:30:21.535Z,14.02
2019-02-23T19:32:49.525Z,16.12
2019-02-23T19:35:17.513Z,16.33
2019-02-23T19:37:45.463Z,15.35
2019-02-23T19:40:13.186Z,14.02
2019-02-23T19:42:41.157Z,13.62
2019-02-23T19:45:09.529Z,14.55
2019-02-23T19:47:37.666Z,16.05
2019-02-23T19:50:13.959Z,15.93
2019-02-23T19:52:42.513Z,13.43
2019-02-23T19:55:11.082Z,13.15
2019-02-23T19:57:39.108Z,15.20
2019-02-23T20:00:07.860Z,15.93
2019-02-23T20:02:35.836Z,17.20
2019-02-23T20:05:04.011Z,15.80
2019-02-23T20:07:31.962Z,12.18
2019-02-23T20:10:00.449Z,13.27
2019-02-23T20:12:28.428Z,13.93
2019-02-23T20:14:56.409Z,12.95
2019-02-23T20:17:24.373Z,13.73
2019-02-23T20:19:52.853Z,13.57
2019-02-23T20:22:20.859Z,14.73
2019-02-23T20:24:48.855Z,15.05
2019-02-23T20:27:16.814Z,14.05
2019-02-23T20:29:45.314Z,15.95
2019-02-23T20:32:13.424Z,13.88
2019-02-23T20:34:41.693Z,12.82
2019-02-23T20:37:10.293Z,12.90
2019-02-23T20:39:38.877Z,13.62
2019-02-23T20:42:07.012Z,15.13
2019-02-23T20:44:35.615Z,13.73
2019-02-23T20:47:03.773Z,12.90
2019-02-23T20:49:32.458Z,13.02
2019-02-23T20:52:01.498Z,10.93
2019-02-23T20:54:29.277Z,14.70
2019-02-23T20:57:04.080Z,12.27
2019-02-23T20:59:25.590Z,13.57
2019-02-23T21:01:53.734Z,10.38
2019-02-23T21:04:21.513Z,14.02
2019-02-23T21:06:49.376Z,11.40
2019-02-23T21:09:17.460Z,12.73
2019-02-23T21:11:45.302Z,13.75
2019-02-23T21:14:13.507Z,14.15
2019-02-23T21:16:41.646Z,15.05
2019-02-23T21:19:10.318Z,13.73
2019-02-23T21:21:38.049Z,12.82
2019-02-23T21:24:05.977Z,12.65
2019-02-23T21:26:34.556Z,12.35
2019-02-23T21:29:02.722Z,13.20
2019-02-23T21:31:30.513Z,13.52
2019-02-23T21:33:58.270Z,13.50
2019-02-23T21:36:26.734Z,12.30
2019-02-23T21:38:54.618Z,12.80
2019-02-23T21:41:22.387Z,12.77
2019-02-23T21:43:50.742Z,11.45
2019-02-23T21:46:18.819Z,12.68
2019-02-23T21:48:46.906Z,10.77
2019-02-23T21:51:15.475Z,13.13
2019-02-23T21:53:43.960Z,13.48
2019-02-23T21:56:12.045Z,12.20
2019-02-23T21:58:40.373Z,12.70
2019-02-23T22:01:08.488Z,12.35
2019-02-23T22:03:37.766Z,11.98
2019-02-23T22:06:05.021Z,12.35
2019-02-23T22:08:32.785Z,11.85
2019-02-23T22:11:00.884Z,12.32
2019-02-23T22:13:29.061Z,11.35
2019-02-23T22:15:57.116Z,11.18
2019-02-23T22:18:25.257Z,14.02
2019-02-23T22:20:53.453Z,12.18
2019-02-23T22:23:21.502Z,13.20
2019-02-23T22:25:49.712Z,12.65
2019-02-23T22:28:18.090Z,11.40
2019-02-23T22:30:45.943Z,12.23
2019-02-23T22:33:14.025Z,17.62
2019-02-23T22:35:42.134Z,13.77
2019-02-23T22:38:10.230Z,13.25
2019-02-23T22:40:38.354Z,13.60
2019-02-23T22:43:06.424Z,15.80
2019-02-23T22:45:34.703Z,13.62
2019-02-23T22:48:03.449Z,13.18
2019-02-23T22:50:31.582Z,11.55
2019-02-23T22:52:59.506Z,11.65
2019-02-23T22:55:28.315Z,12.55
2019-02-23T22:57:56.271Z,11.93
2019-02-23T23:00:26.862Z,15.02
2019-02-23T23:02:54.978Z,11.90
2019-02-23T23:05:23.122Z,13.77
2019-02-23T23:07:51.222Z,13.77
2019-02-23T23:10:19.744Z,13.40
2019-02-23T23:12:48.175Z,13.95
2019-02-23T23:15:16.262Z,14.10
2019-02-23T23:17:44.437Z,13.15
2019-02-23T23:20:13.370Z,13.05
2019-02-23T23:22:41.576Z,16.25
2019-02-23T23:25:09.391Z,14.25
2019-02-23T23:27:37.638Z,14.05
2019-02-23T23:30:05.779Z,13.35
2019-02-23T23:32:33.650Z,14.13
2019-02-23T23:35:01.853Z,12.90
2019-02-23T23:37:29.928Z,15.68
2019-02-23T23:39:57.867Z,13.75
2019-02-23T23:42:26.055Z,15.23
2019-02-23T23:44:54.240Z,13.95
2019-02-23T23:47:22.073Z,13.00
2019-02-23T23:49:50.275Z,13.68
2019-02-23T23:52:18.460Z,15.98
2019-02-23T23:54:46.288Z,12.13
2019-02-23T23:57:14.979Z,14.95
2019-02-23T23:59:43.064Z,14.27
